sensor_id;sensor_type;location;lat;lon;timestamp;P1;durP1;ratioP1;P2;durP2;ratioP2
7527;SDS011;3805;49.006;8.514;2023-06-14T00:00:57;7.23;;;6.53;;
7527;SDS011;3805;49.006;8.514;2023-06-14T00:03:46;8.20;;;5.97;;
7527;SDS011;3805;49.006;8.514;2023-06-14T00:06:35;6.90;;;6.20;;
7527;SDS011;3805;49.006;8.514;2023-06-14T00:09:26;6.80;;;6.27;;
7527;SDS011;3805;49.006;8.514;2023-06-14T00:12:15;8.77;;;5.50;;
7527;SDS011;3805;49.006;8.514;2023-06-14T00:15:04;7.43;;;6.83;;
7527;SDS011;3805;49.006;8.514;2023-06-14T00:17:54;7.50;;;6.50;;
7527;SDS011;3805;49.006;8.514;2023-06-14T00:20:43;7.00;;;6.30;;
7527;SDS011;3805;49.006;8.514;2023-06-14T00:23:33;7.27;;;6.57;;
7527;SDS011;3805;49.006;8.514;2023-06-14T00:26:23;7.10;;;6.50;;
7527;SDS011;3805;49.006;8.514;2023-06-14T00:29:13;7.20;;;6.50;;
7527;SDS011;3805;49.006;8.514;2023-06-14T00:32:01;7.40;;;6.80;;
7527;SDS011;3805;49.006;8.514;2023-06-14T00:34:50;7.17;;;6.57;;
7527;SDS011;3805;49.006;8.514;2023-06-14T00:37:39;7.27;;;6.57;;
7527;SDS011;3805;49.006;8.514;2023-06-14T00:40:28;7.40;;;6.30;;
7527;SDS011;3805;49.006;8.514;2023-06-14T00:43:18;7.40;;;6.70;;
7527;SDS011;3805;49.006;8.514;2023-06-14T00:46:06;6.93;;;6.23;;
7527;SDS011;3805;49.006;8.514;2023-06-14T00:48:55;10.03;;;6.57;;
7527;SDS011;3805;49.006;8.514;2023-06-14T00:51:44;6.83;;;6.23;;
7527;SDS011;3805;49.006;8.514;2023-06-14T00:54:33;7.03;;;6.53;;
7527;SDS011;3805;49.006;8.514;2023-06-14T00:57:22;7.70;;;6.80;;
7527;SDS011;3805;49.006;8.514;2023-06-14T01:00:13;7.40;;;6.73;;
7527;SDS011;3805;49.006;8.514;2023-06-14T01:03:02;6.43;;;5.83;;
7527;SDS011;3805;49.006;8.514;2023-06-14T01:05:51;7.93;;;7.13;;
7527;SDS011;3805;49.006;8.514;2023-06-14T01:08:47;6.90;;;6.20;;
7527;SDS011;3805;49.006;8.514;2023-06-14T01:11:41;8.77;;;6.10;;
7527;SDS011;3805;49.006;8.514;2023-06-14T01:14:36;7.77;;;6.90;;
7527;SDS011;3805;49.006;8.514;2023-06-14T01:17:26;8.20;;;6.97;;
7527;SDS011;3805;49.006;8.514;2023-06-14T01:20:19;7.20;;;6.50;;
7527;SDS011;3805;49.006;8.514;2023-06-14T01:23:10;8.63;;;6.73;;
7527;SDS011;3805;49.006;8.514;2023-06-14T01:25:59;7.67;;;6.70;;
7527;SDS011;3805;49.006;8.514;2023-06-14T01:28:50;7.53;;;6.83;;
7527;SDS011;3805;49.006;8.514;2023-06-14T01:31:43;7.17;;;6.50;;
7527;SDS011;3805;49.006;8.514;2023-06-14T01:34:32;7.27;;;6.47;;
7527;SDS011;3805;49.006;8.514;2023-06-14T01:37:21;10.83;;;6.60;;
7527;SDS011;3805;49.006;8.514;2023-06-14T01:40:11;8.03;;;7.30;;
7527;SDS011;3805;49.006;8.514;2023-06-14T01:43:01;7.80;;;7.00;;
7527;SDS011;3805;49.006;8.514;2023-06-14T01:45:50;7.80;;;7.17;;
7527;SDS011;3805;49.006;8.514;2023-06-14T01:48:40;7.43;;;6.73;;
7527;SDS011;3805;49.006;8.514;2023-06-14T01:51:29;8.60;;;6.63;;
7527;SDS011;3805;49.006;8.514;2023-06-14T01:54:17;7.30;;;6.70;;
7527;SDS011;3805;49.006;8.514;2023-06-14T01:57:08;7.67;;;6.93;;
7527;SDS011;3805;49.006;8.514;2023-06-14T01:59:57;7.90;;;7.03;;
7527;SDS011;3805;49.006;8.514;2023-06-14T02:02:46;8.03;;;7.33;;
7527;SDS011;3805;49.006;8.514;2023-06-14T02:05:36;7.80;;;7.13;;
7527;SDS011;3805;49.006;8.514;2023-06-14T02:08:26;8.37;;;7.27;;
7527;SDS011;3805;49.006;8.514;2023-06-14T02:11:14;7.93;;;7.13;;
7527;SDS011;3805;49.006;8.514;2023-06-14T02:14:05;7.70;;;6.70;;
7527;SDS011;3805;49.006;8.514;2023-06-14T02:16:54;9.00;;;7.87;;
7527;SDS011;3805;49.006;8.514;2023-06-14T02:19:42;7.83;;;7.07;;
7527;SDS011;3805;49.006;8.514;2023-06-14T02:22:32;8.13;;;7.10;;
7527;SDS011;3805;49.006;8.514;2023-06-14T02:25:21;8.50;;;7.80;;
7527;SDS011;3805;49.006;8.514;2023-06-14T02:28:09;8.00;;;7.30;;
7527;SDS011;3805;49.006;8.514;2023-06-14T02:30:59;8.07;;;7.27;;
7527;SDS011;3805;49.006;8.514;2023-06-14T02:33:48;8.60;;;7.23;;
7527;SDS011;3805;49.006;8.514;2023-06-14T02:36:37;8.93;;;8.03;;
7527;SDS011;3805;49.006;8.514;2023-06-14T02:39:29;8.33;;;7.70;;
7527;SDS011;3805;49.006;8.514;2023-06-14T02:42:17;8.23;;;7.47;;
7527;SDS011;3805;49.006;8.514;2023-06-14T02:45:07;9.50;;;7.60;;
7527;SDS011;3805;49.006;8.514;2023-06-14T02:47:58;7.80;;;7.07;;
7527;SDS011;3805;49.006;8.514;2023-06-14T02:50:46;7.80;;;7.00;;
7527;SDS011;3805;49.006;8.514;2023-06-14T02:53:35;7.60;;;7.00;;
7527;SDS011;3805;49.006;8.514;2023-06-14T02:56:24;7.77;;;7.07;;
7527;SDS011;3805;49.006;8.514;2023-06-14T02:59:13;7.80;;;7.00;;
7527;SDS011;3805;49.006;8.514;2023-06-14T03:02:02;8.10;;;7.40;;
7527;SDS011;3805;49.006;8.514;2023-06-14T03:04:52;10.87;;;8.00;;
7527;SDS011;3805;49.006;8.514;2023-06-14T03:07:41;8.73;;;7.90;;
7527;SDS011;3805;49.006;8.514;2023-06-14T03:10:32;7.67;;;6.87;;
7527;SDS011;3805;49.006;8.514;2023-06-14T03:13:20;8.70;;;7.20;;
7527;SDS011;3805;49.006;8.514;2023-06-14T03:16:09;7.70;;;7.00;;
7527;SDS011;3805;49.006;8.514;2023-06-14T03:18:58;7.80;;;6.90;;
7527;SDS011;3805;49.006;8.514;2023-06-14T03:21:48;10.00;;;6.70;;
7527;SDS011;3805;49.006;8.514;2023-06-14T03:24:36;7.77;;;6.80;;
7527;SDS011;3805;49.006;8.514;2023-06-14T03:27:25;9.50;;;6.90;;
7527;SDS011;3805;49.006;8.514;2023-06-14T03:30:15;8.33;;;7.00;;
7527;SDS011;3805;49.006;8.514;2023-06-14T03:33:05;8.03;;;7.30;;
7527;SDS011;3805;49.006;8.514;2023-06-14T03:35:53;9.00;;;8.20;;
7527;SDS011;3805;49.006;8.514;2023-06-14T03:38:44;7.93;;;7.20;;
7527;SDS011;3805;49.006;8.514;2023-06-14T03:41:33;9.93;;;8.93;;
7527;SDS011;3805;49.006;8.514;2023-06-14T03:44:21;9.40;;;7.93;;
7527;SDS011;3805;49.006;8.514;2023-06-14T03:47:10;11.73;;;8.77;;
7527;SDS011;3805;49.006;8.514;2023-06-14T03:49:59;9.57;;;8.30;;
7527;SDS011;3805;49.006;8.514;2023-06-14T03:52:48;9.10;;;8.20;;
7527;SDS011;3805;49.006;8.514;2023-06-14T03:55:38;8.07;;;7.37;;
7527;SDS011;3805;49.006;8.514;2023-06-14T03:58:31;11.20;;;7.50;;
7527;SDS011;3805;49.006;8.514;2023-06-14T04:01:20;9.13;;;8.30;;
7527;SDS011;3805;49.006;8.514;2023-06-14T04:04:12;8.83;;;7.77;;
7527;SDS011;3805;49.006;8.514;2023-06-14T04:07:03;13.37;;;8.00;;
7527;SDS011;3805;49.006;8.514;2023-06-14T04:09:52;9.23;;;7.80;;
7527;SDS011;3805;49.006;8.514;2023-06-14T04:12:42;9.33;;;7.70;;
7527;SDS011;3805;49.006;8.514;2023-06-14T04:15:31;10.27;;;8.67;;
7527;SDS011;3805;49.006;8.514;2023-06-14T04:18:20;8.83;;;8.00;;
7527;SDS011;3805;49.006;8.514;2023-06-14T04:21:11;7.73;;;7.00;;
7527;SDS011;3805;49.006;8.514;2023-06-14T04:23:59;8.53;;;7.93;;
7527;SDS011;3805;49.006;8.514;2023-06-14T04:26:49;9.67;;;7.80;;
7527;SDS011;3805;49.006;8.514;2023-06-14T04:29:40;9.80;;;7.57;;
7527;SDS011;3805;49.006;8.514;2023-06-14T04:32:30;9.37;;;8.40;;
7527;SDS011;3805;49.006;8.514;2023-06-14T04:35:20;9.40;;;8.50;;
7527;SDS011;3805;49.006;8.514;2023-06-14T04:38:10;8.97;;;8.07;;
7527;SDS011;3805;49.006;8.514;2023-06-14T04:40:59;7.63;;;7.03;;
7527;SDS011;3805;49.006;8.514;2023-06-14T04:43:49;9.30;;;8.33;;
7527;SDS011;3805;49.006;8.514;2023-06-14T04:46:41;9.83;;;8.93;;
7527;SDS011;3805;49.006;8.514;2023-06-14T04:49:33;8.93;;;8.00;;
7527;SDS011;3805;49.006;8.514;2023-06-14T04:52:22;8.67;;;7.90;;
7527;SDS011;3805;49.006;8.514;2023-06-14T04:55:13;8.97;;;7.63;;
7527;SDS011;3805;49.006;8.514;2023-06-14T04:58:02;9.17;;;8.37;;
7527;SDS011;3805;49.006;8.514;2023-06-14T05:00:51;8.67;;;7.83;;
7527;SDS011;3805;49.006;8.514;2023-06-14T05:03:42;8.73;;;7.83;;
7527;SDS011;3805;49.006;8.514;2023-06-14T05:06:32;8.40;;;7.53;;
7527;SDS011;3805;49.006;8.514;2023-06-14T05:09:21;8.43;;;7.70;;
7527;SDS011;3805;49.006;8.514;2023-06-14T05:12:09;8.40;;;7.50;;
7527;SDS011;3805;49.006;8.514;2023-06-14T05:14:58;8.57;;;7.80;;
7527;SDS011;3805;49.006;8.514;2023-06-14T05:17:47;8.87;;;7.93;;
7527;SDS011;3805;49.006;8.514;2023-06-14T05:20:43;7.97;;;7.30;;
7527;SDS011;3805;49.006;8.514;2023-06-14T05:23:33;8.17;;;7.37;;
7527;SDS011;3805;49.006;8.514;2023-06-14T05:26:21;9.63;;;8.03;;
7527;SDS011;3805;49.006;8.514;2023-06-14T05:29:12;7.90;;;7.20;;
7527;SDS011;3805;49.006;8.514;2023-06-14T05:32:01;8.60;;;7.70;;
7527;SDS011;3805;49.006;8.514;2023-06-14T05:34:49;11.33;;;8.63;;
7527;SDS011;3805;49.006;8.514;2023-06-14T05:37:39;8.70;;;7.73;;
7527;SDS011;3805;49.006;8.514;2023-06-14T05:40:28;8.27;;;7.50;;
7527;SDS011;3805;49.006;8.514;2023-06-14T05:43:16;9.23;;;8.43;;
7527;SDS011;3805;49.006;8.514;2023-06-14T05:46:05;8.03;;;7.17;;
7527;SDS011;3805;49.006;8.514;2023-06-14T05:48:54;8.43;;;7.70;;
7527;SDS011;3805;49.006;8.514;2023-06-14T05:51:43;8.50;;;7.67;;
7527;SDS011;3805;49.006;8.514;2023-06-14T05:54:33;7.50;;;6.90;;
7527;SDS011;3805;49.006;8.514;2023-06-14T05:57:22;7.40;;;6.70;;
7527;SDS011;3805;49.006;8.514;2023-06-14T06:00:11;8.10;;;7.40;;
7527;SDS011;3805;49.006;8.514;2023-06-14T06:03:01;8.00;;;7.30;;
7527;SDS011;3805;49.006;8.514;2023-06-14T06:05:50;8.23;;;7.53;;
7527;SDS011;3805;49.006;8.514;2023-06-14T06:08:39;9.70;;;8.57;;
7527;SDS011;3805;49.006;8.514;2023-06-14T06:11:29;8.93;;;7.93;;
7527;SDS011;3805;49.006;8.514;2023-06-14T06:14:34;7.27;;;6.70;;
7527;SDS011;3805;49.006;8.514;2023-06-14T06:17:24;8.47;;;7.53;;
7527;SDS011;3805;49.006;8.514;2023-06-14T06:20:22;7.77;;;7.03;;
7527;SDS011;3805;49.006;8.514;2023-06-14T06:23:16;8.00;;;7.30;;
7527;SDS011;3805;49.006;8.514;2023-06-14T06:26:05;7.60;;;7.00;;
7527;SDS011;3805;49.006;8.514;2023-06-14T06:28:54;6.97;;;5.87;;
7527;SDS011;3805;49.006;8.514;2023-06-14T06:31:44;8.70;;;7.87;;
7527;SDS011;3805;49.006;8.514;2023-06-14T06:34:33;8.40;;;6.90;;
7527;SDS011;3805;49.006;8.514;2023-06-14T06:37:24;11.37;;;7.50;;
7527;SDS011;3805;49.006;8.514;2023-06-14T06:40:12;9.20;;;7.00;;
7527;SDS011;3805;49.006;8.514;2023-06-14T06:43:01;9.50;;;6.93;;
7527;SDS011;3805;49.006;8.514;2023-06-14T06:45:51;8.20;;;7.50;;
7527;SDS011;3805;49.006;8.514;2023-06-14T06:48:40;7.20;;;6.70;;
7527;SDS011;3805;49.006;8.514;2023-06-14T06:51:28;8.40;;;6.80;;
7527;SDS011;3805;49.006;8.514;2023-06-14T06:54:17;9.00;;;6.17;;
7527;SDS011;3805;49.006;8.514;2023-06-14T06:57:05;7.27;;;6.63;;
7527;SDS011;3805;49.006;8.514;2023-06-14T06:59:54;8.80;;;6.80;;
7527;SDS011;3805;49.006;8.514;2023-06-14T07:02:44;7.03;;;6.50;;
7527;SDS011;3805;49.006;8.514;2023-06-14T07:05:33;7.57;;;6.97;;
7527;SDS011;3805;49.006;8.514;2023-06-14T07:08:22;7.47;;;6.87;;
7527;SDS011;3805;49.006;8.514;2023-06-14T07:11:10;7.37;;;6.77;;
7527;SDS011;3805;49.006;8.514;2023-06-14T07:13:59;7.57;;;6.97;;
7527;SDS011;3805;49.006;8.514;2023-06-14T07:16:47;7.27;;;6.57;;
7527;SDS011;3805;49.006;8.514;2023-06-14T07:19:38;8.13;;;6.47;;
7527;SDS011;3805;49.006;8.514;2023-06-14T07:22:26;7.00;;;6.30;;
7527;SDS011;3805;49.006;8.514;2023-06-14T07:25:15;7.30;;;6.30;;
7527;SDS011;3805;49.006;8.514;2023-06-14T07:28:07;7.17;;;6.47;;
7527;SDS011;3805;49.006;8.514;2023-06-14T07:30:55;8.70;;;7.37;;
7527;SDS011;3805;49.006;8.514;2023-06-14T07:33:44;7.67;;;6.87;;
7527;SDS011;3805;49.006;8.514;2023-06-14T07:36:35;7.23;;;6.27;;
7527;SDS011;3805;49.006;8.514;2023-06-14T07:39:25;6.20;;;5.80;;
7527;SDS011;3805;49.006;8.514;2023-06-14T07:42:13;9.20;;;6.47;;
7527;SDS011;3805;49.006;8.514;2023-06-14T07:45:02;6.53;;;6.03;;
7527;SDS011;3805;49.006;8.514;2023-06-14T07:47:52;6.27;;;5.60;;
7527;SDS011;3805;49.006;8.514;2023-06-14T07:50:41;6.50;;;6.00;;
7527;SDS011;3805;49.006;8.514;2023-06-14T07:53:31;7.87;;;6.73;;
7527;SDS011;3805;49.006;8.514;2023-06-14T07:56:20;6.93;;;6.43;;
7527;SDS011;3805;49.006;8.514;2023-06-14T07:59:09;7.53;;;5.93;;
7527;SDS011;3805;49.006;8.514;2023-06-14T08:01:58;7.00;;;6.40;;
7527;SDS011;3805;49.006;8.514;2023-06-14T08:04:46;6.60;;;6.10;;
7527;SDS011;3805;49.006;8.514;2023-06-14T08:07:35;6.03;;;5.50;;
7527;SDS011;3805;49.006;8.514;2023-06-14T08:10:26;7.33;;;6.13;;
7527;SDS011;3805;49.006;8.514;2023-06-14T08:13:14;7.20;;;6.10;;
7527;SDS011;3805;49.006;8.514;2023-06-14T08:16:03;8.00;;;5.33;;
7527;SDS011;3805;49.006;8.514;2023-06-14T08:18:53;6.97;;;6.30;;
7527;SDS011;3805;49.006;8.514;2023-06-14T08:21:42;6.07;;;5.47;;
7527;SDS011;3805;49.006;8.514;2023-06-14T08:24:30;6.90;;;4.77;;
7527;SDS011;3805;49.006;8.514;2023-06-14T08:27:21;5.97;;;5.57;;
7527;SDS011;3805;49.006;8.514;2023-06-14T08:30:10;6.77;;;5.80;;
7527;SDS011;3805;49.006;8.514;2023-06-14T08:32:59;5.77;;;5.37;;
7527;SDS011;3805;49.006;8.514;2023-06-14T08:36:01;8.67;;;5.50;;
7527;SDS011;3805;49.006;8.514;2023-06-14T08:38:52;6.27;;;5.67;;
7527;SDS011;3805;49.006;8.514;2023-06-14T08:41:42;6.17;;;5.47;;
7527;SDS011;3805;49.006;8.514;2023-06-14T08:44:33;6.30;;;5.70;;
7527;SDS011;3805;49.006;8.514;2023-06-14T08:47:22;6.77;;;5.67;;
7527;SDS011;3805;49.006;8.514;2023-06-14T08:50:12;12.53;;;6.10;;
7527;SDS011;3805;49.006;8.514;2023-06-14T08:53:14;6.30;;;5.80;;
7527;SDS011;3805;49.006;8.514;2023-06-14T08:56:07;5.97;;;5.40;;
7527;SDS011;3805;49.006;8.514;2023-06-14T08:59:00;7.10;;;5.73;;
7527;SDS011;3805;49.006;8.514;2023-06-14T09:01:51;9.67;;;5.60;;
7527;SDS011;3805;49.006;8.514;2023-06-14T09:04:59;5.77;;;5.40;;
7527;SDS011;3805;49.006;8.514;2023-06-14T09:07:47;8.50;;;5.83;;
7527;SDS011;3805;49.006;8.514;2023-06-14T09:10:37;6.97;;;4.50;;
7527;SDS011;3805;49.006;8.514;2023-06-14T09:13:30;4.97;;;4.50;;
7527;SDS011;3805;49.006;8.514;2023-06-14T09:16:19;5.80;;;5.40;;
7527;SDS011;3805;49.006;8.514;2023-06-14T09:19:09;5.53;;;5.13;;
7527;SDS011;3805;49.006;8.514;2023-06-14T09:22:02;6.17;;;5.60;;
7527;SDS011;3805;49.006;8.514;2023-06-14T09:24:52;5.23;;;4.83;;
7527;SDS011;3805;49.006;8.514;2023-06-14T09:27:42;9.10;;;5.30;;
7527;SDS011;3805;49.006;8.514;2023-06-14T09:30:31;5.90;;;5.00;;
7527;SDS011;3805;49.006;8.514;2023-06-14T09:33:19;7.03;;;5.77;;
7527;SDS011;3805;49.006;8.514;2023-06-14T09:36:11;5.53;;;5.03;;
7527;SDS011;3805;49.006;8.514;2023-06-14T09:39:01;5.40;;;4.93;;
7527;SDS011;3805;49.006;8.514;2023-06-14T09:41:53;12.00;;;6.77;;
7527;SDS011;3805;49.006;8.514;2023-06-14T09:44:41;6.17;;;5.67;;
7527;SDS011;3805;49.006;8.514;2023-06-14T09:47:30;5.83;;;5.17;;
7527;SDS011;3805;49.006;8.514;2023-06-14T09:50:19;5.90;;;5.40;;
7527;SDS011;3805;49.006;8.514;2023-06-14T09:53:10;5.73;;;5.27;;
7527;SDS011;3805;49.006;8.514;2023-06-14T09:55:59;5.90;;;5.40;;
7527;SDS011;3805;49.006;8.514;2023-06-14T09:58:48;5.50;;;5.00;;
7527;SDS011;3805;49.006;8.514;2023-06-14T10:01:53;5.70;;;5.20;;
7527;SDS011;3805;49.006;8.514;2023-06-14T10:04:49;9.57;;;5.23;;
7527;SDS011;3805;49.006;8.514;2023-06-14T10:07:40;6.07;;;5.43;;
7527;SDS011;3805;49.006;8.514;2023-06-14T10:10:32;7.63;;;4.77;;
7527;SDS011;3805;49.006;8.514;2023-06-14T10:13:21;6.40;;;5.10;;
7527;SDS011;3805;49.006;8.514;2023-06-14T10:16:12;5.20;;;4.70;;
7527;SDS011;3805;49.006;8.514;2023-06-14T10:19:06;4.90;;;4.40;;
7527;SDS011;3805;49.006;8.514;2023-06-14T10:22:00;6.90;;;4.30;;
7527;SDS011;3805;49.006;8.514;2023-06-14T10:24:50;6.10;;;4.90;;
7527;SDS011;3805;49.006;8.514;2023-06-14T10:27:40;5.20;;;4.50;;
7527;SDS011;3805;49.006;8.514;2023-06-14T10:30:33;8.67;;;4.70;;
7527;SDS011;3805;49.006;8.514;2023-06-14T10:33:21;5.10;;;4.63;;
7527;SDS011;3805;49.006;8.514;2023-06-14T10:36:11;5.07;;;4.40;;
7527;SDS011;3805;49.006;8.514;2023-06-14T10:39:15;5.30;;;4.80;;
7527;SDS011;3805;49.006;8.514;2023-06-14T10:42:05;5.30;;;4.37;;
7527;SDS011;3805;49.006;8.514;2023-06-14T10:44:57;8.20;;;4.93;;
7527;SDS011;3805;49.006;8.514;2023-06-14T10:47:46;4.53;;;4.13;;
7527;SDS011;3805;49.006;8.514;2023-06-14T10:50:39;5.40;;;4.07;;
7527;SDS011;3805;49.006;8.514;2023-06-14T10:53:38;5.70;;;5.20;;
7527;SDS011;3805;49.006;8.514;2023-06-14T10:56:28;5.43;;;4.93;;
7527;SDS011;3805;49.006;8.514;2023-06-14T10:59:18;4.63;;;4.33;;
7527;SDS011;3805;49.006;8.514;2023-06-14T11:02:13;5.50;;;5.00;;
7527;SDS011;3805;49.006;8.514;2023-06-14T11:05:15;5.60;;;5.10;;
7527;SDS011;3805;49.006;8.514;2023-06-14T11:08:10;5.77;;;5.17;;
7527;SDS011;3805;49.006;8.514;2023-06-14T11:11:06;6.70;;;4.80;;
7527;SDS011;3805;49.006;8.514;2023-06-14T11:13:55;14.63;;;6.10;;
7527;SDS011;3805;49.006;8.514;2023-06-14T11:16:47;4.83;;;4.33;;
7527;SDS011;3805;49.006;8.514;2023-06-14T11:19:37;5.23;;;4.83;;
7527;SDS011;3805;49.006;8.514;2023-06-14T11:22:26;5.27;;;4.87;;
7527;SDS011;3805;49.006;8.514;2023-06-14T11:25:15;5.70;;;4.80;;
7527;SDS011;3805;49.006;8.514;2023-06-14T11:28:04;6.37;;;5.50;;
7527;SDS011;3805;49.006;8.514;2023-06-14T11:30:59;5.33;;;4.83;;
7527;SDS011;3805;49.006;8.514;2023-06-14T11:33:49;6.27;;;5.70;;
7527;SDS011;3805;49.006;8.514;2023-06-14T11:36:39;6.03;;;5.53;;
7527;SDS011;3805;49.006;8.514;2023-06-14T11:39:28;6.70;;;6.20;;
7527;SDS011;3805;49.006;8.514;2023-06-14T11:42:17;33.97;;;6.60;;
7527;SDS011;3805;49.006;8.514;2023-06-14T11:45:07;6.57;;;5.97;;
7527;SDS011;3805;49.006;8.514;2023-06-14T11:47:57;5.97;;;5.43;;
7527;SDS011;3805;49.006;8.514;2023-06-14T11:50:49;6.20;;;5.70;;
7527;SDS011;3805;49.006;8.514;2023-06-14T11:53:39;8.90;;;6.40;;
7527;SDS011;3805;49.006;8.514;2023-06-14T11:56:28;6.10;;;5.50;;
7527;SDS011;3805;49.006;8.514;2023-06-14T11:59:17;5.80;;;5.30;;
7527;SDS011;3805;49.006;8.514;2023-06-14T12:02:06;5.53;;;5.13;;
7527;SDS011;3805;49.006;8.514;2023-06-14T12:04:55;5.27;;;4.87;;
7527;SDS011;3805;49.006;8.514;2023-06-14T12:07:44;5.40;;;4.90;;
7527;SDS011;3805;49.006;8.514;2023-06-14T12:10:40;5.43;;;5.03;;
7527;SDS011;3805;49.006;8.514;2023-06-14T12:13:30;6.30;;;5.80;;
7527;SDS011;3805;49.006;8.514;2023-06-14T12:16:19;5.73;;;5.23;;
7527;SDS011;3805;49.006;8.514;2023-06-14T12:19:09;6.50;;;6.00;;
7527;SDS011;3805;49.006;8.514;2023-06-14T12:22:00;9.53;;;5.23;;
7527;SDS011;3805;49.006;8.514;2023-06-14T12:24:51;5.30;;;4.90;;
7527;SDS011;3805;49.006;8.514;2023-06-14T12:27:42;6.83;;;4.97;;
7527;SDS011;3805;49.006;8.514;2023-06-14T12:30:31;4.93;;;4.53;;
7527;SDS011;3805;49.006;8.514;2023-06-14T12:33:19;5.80;;;5.40;;
7527;SDS011;3805;49.006;8.514;2023-06-14T12:36:09;5.50;;;5.00;;
7527;SDS011;3805;49.006;8.514;2023-06-14T12:38:58;5.30;;;4.90;;
7527;SDS011;3805;49.006;8.514;2023-06-14T12:41:47;5.33;;;4.83;;
7527;SDS011;3805;49.006;8.514;2023-06-14T12:44:37;5.13;;;4.53;;
7527;SDS011;3805;49.006;8.514;2023-06-14T12:47:27;4.77;;;4.47;;
7527;SDS011;3805;49.006;8.514;2023-06-14T12:50:16;5.10;;;4.80;;
7527;SDS011;3805;49.006;8.514;2023-06-14T12:53:07;7.23;;;5.27;;
7527;SDS011;3805;49.006;8.514;2023-06-14T12:55:55;6.83;;;5.10;;
7527;SDS011;3805;49.006;8.514;2023-06-14T12:58:44;5.50;;;4.70;;
7527;SDS011;3805;49.006;8.514;2023-06-14T13:01:34;5.60;;;5.13;;
7527;SDS011;3805;49.006;8.514;2023-06-14T13:04:26;5.23;;;4.83;;
7527;SDS011;3805;49.006;8.514;2023-06-14T13:07:14;7.73;;;4.50;;
7527;SDS011;3805;49.006;8.514;2023-06-14T13:10:04;6.23;;;4.93;;
7527;SDS011;3805;49.006;8.514;2023-06-14T13:12:52;4.43;;;3.90;;
7527;SDS011;3805;49.006;8.514;2023-06-14T13:15:41;5.87;;;4.87;;
7527;SDS011;3805;49.006;8.514;2023-06-14T13:18:32;4.93;;;4.63;;
7527;SDS011;3805;49.006;8.514;2023-06-14T13:21:20;5.87;;;5.20;;
7527;SDS011;3805;49.006;8.514;2023-06-14T13:24:10;5.13;;;4.73;;
7527;SDS011;3805;49.006;8.514;2023-06-14T13:26:58;5.47;;;5.07;;
7527;SDS011;3805;49.006;8.514;2023-06-14T13:29:47;7.40;;;4.47;;
7527;SDS011;3805;49.006;8.514;2023-06-14T13:32:35;4.47;;;4.17;;
7527;SDS011;3805;49.006;8.514;2023-06-14T13:35:25;5.20;;;4.80;;
7527;SDS011;3805;49.006;8.514;2023-06-14T13:38:14;5.17;;;4.67;;
7527;SDS011;3805;49.006;8.514;2023-06-14T13:41:02;4.27;;;3.90;;
7527;SDS011;3805;49.006;8.514;2023-06-14T13:43:52;4.70;;;4.30;;
7527;SDS011;3805;49.006;8.514;2023-06-14T13:46:40;4.80;;;4.40;;
7527;SDS011;3805;49.006;8.514;2023-06-14T13:49:30;5.17;;;4.77;;
7527;SDS011;3805;49.006;8.514;2023-06-14T13:52:22;4.00;;;3.70;;
7527;SDS011;3805;49.006;8.514;2023-06-14T13:55:11;4.60;;;4.30;;
7527;SDS011;3805;49.006;8.514;2023-06-14T13:58:01;4.33;;;4.03;;
7527;SDS011;3805;49.006;8.514;2023-06-14T14:00:49;6.40;;;4.47;;
7527;SDS011;3805;49.006;8.514;2023-06-14T14:03:39;4.57;;;4.17;;
7527;SDS011;3805;49.006;8.514;2023-06-14T14:06:28;4.40;;;4.10;;
7527;SDS011;3805;49.006;8.514;2023-06-14T14:09:18;5.87;;;4.20;;
7527;SDS011;3805;49.006;8.514;2023-06-14T14:12:07;5.47;;;3.93;;
7527;SDS011;3805;49.006;8.514;2023-06-14T14:14:55;4.37;;;4.07;;
7527;SDS011;3805;49.006;8.514;2023-06-14T14:17:44;4.53;;;4.10;;
7527;SDS011;3805;49.006;8.514;2023-06-14T14:20:34;4.23;;;3.93;;
7527;SDS011;3805;49.006;8.514;2023-06-14T14:23:23;4.13;;;3.83;;
7527;SDS011;3805;49.006;8.514;2023-06-14T14:26:13;4.03;;;3.70;;
7527;SDS011;3805;49.006;8.514;2023-06-14T14:29:02;4.97;;;4.57;;
7527;SDS011;3805;49.006;8.514;2023-06-14T14:31:51;4.20;;;3.90;;
7527;SDS011;3805;49.006;8.514;2023-06-14T14:34:40;4.63;;;4.33;;
7527;SDS011;3805;49.006;8.514;2023-06-14T14:37:28;4.60;;;4.30;;
7527;SDS011;3805;49.006;8.514;2023-06-14T14:40:17;5.07;;;4.00;;
7527;SDS011;3805;49.006;8.514;2023-06-14T14:43:07;4.13;;;3.83;;
7527;SDS011;3805;49.006;8.514;2023-06-14T14:45:55;6.40;;;4.07;;
7527;SDS011;3805;49.006;8.514;2023-06-14T14:48:44;4.13;;;3.83;;
7527;SDS011;3805;49.006;8.514;2023-06-14T14:51:32;4.23;;;3.90;;
7527;SDS011;3805;49.006;8.514;2023-06-14T14:54:21;4.40;;;4.10;;
7527;SDS011;3805;49.006;8.514;2023-06-14T14:57:10;4.50;;;4.20;;
7527;SDS011;3805;49.006;8.514;2023-06-14T15:00:00;4.37;;;4.07;;
7527;SDS011;3805;49.006;8.514;2023-06-14T15:02:49;4.53;;;4.13;;
7527;SDS011;3805;49.006;8.514;2023-06-14T15:05:38;8.30;;;4.33;;
7527;SDS011;3805;49.006;8.514;2023-06-14T15:08:27;4.30;;;4.00;;
7527;SDS011;3805;49.006;8.514;2023-06-14T15:11:15;6.40;;;4.50;;
7527;SDS011;3805;49.006;8.514;2023-06-14T15:14:04;4.73;;;4.43;;
7527;SDS011;3805;49.006;8.514;2023-06-14T15:16:54;5.37;;;4.47;;
7527;SDS011;3805;49.006;8.514;2023-06-14T15:19:45;4.40;;;4.10;;
7527;SDS011;3805;49.006;8.514;2023-06-14T15:22:34;4.20;;;3.90;;
7527;SDS011;3805;49.006;8.514;2023-06-14T15:25:22;5.20;;;4.70;;
7527;SDS011;3805;49.006;8.514;2023-06-14T15:28:11;4.73;;;4.43;;
7527;SDS011;3805;49.006;8.514;2023-06-14T15:31:00;5.80;;;5.30;;
7527;SDS011;3805;49.006;8.514;2023-06-14T15:33:50;4.90;;;4.33;;
7527;SDS011;3805;49.006;8.514;2023-06-14T15:36:38;4.87;;;4.57;;
7527;SDS011;3805;49.006;8.514;2023-06-14T15:39:28;5.40;;;4.90;;
7527;SDS011;3805;49.006;8.514;2023-06-14T15:42:18;4.23;;;3.93;;
7527;SDS011;3805;49.006;8.514;2023-06-14T15:45:07;7.33;;;4.53;;
7527;SDS011;3805;49.006;8.514;2023-06-14T15:47:56;4.47;;;4.17;;
7527;SDS011;3805;49.006;8.514;2023-06-14T15:50:46;4.40;;;4.10;;
7527;SDS011;3805;49.006;8.514;2023-06-14T15:53:35;4.40;;;4.03;;
7527;SDS011;3805;49.006;8.514;2023-06-14T15:56:24;4.50;;;4.17;;
7527;SDS011;3805;49.006;8.514;2023-06-14T15:59:13;4.47;;;4.13;;
7527;SDS011;3805;49.006;8.514;2023-06-14T16:02:02;4.70;;;4.30;;
7527;SDS011;3805;49.006;8.514;2023-06-14T16:04:51;5.90;;;5.30;;
7527;SDS011;3805;49.006;8.514;2023-06-14T16:07:41;8.70;;;4.40;;
7527;SDS011;3805;49.006;8.514;2023-06-14T16:10:30;4.43;;;4.03;;
7527;SDS011;3805;49.006;8.514;2023-06-14T16:13:20;5.10;;;4.63;;
7527;SDS011;3805;49.006;8.514;2023-06-14T16:16:08;4.73;;;4.33;;
7527;SDS011;3805;49.006;8.514;2023-06-14T16:18:57;5.07;;;4.67;;
7527;SDS011;3805;49.006;8.514;2023-06-14T16:21:46;4.70;;;4.20;;
7527;SDS011;3805;49.006;8.514;2023-06-14T16:24:36;5.87;;;5.27;;
7527;SDS011;3805;49.006;8.514;2023-06-14T16:27:24;4.90;;;4.50;;
7527;SDS011;3805;49.006;8.514;2023-06-14T16:30:13;4.70;;;4.40;;
7527;SDS011;3805;49.006;8.514;2023-06-14T16:33:02;5.13;;;4.63;;
7527;SDS011;3805;49.006;8.514;2023-06-14T16:35:51;4.47;;;4.17;;
7527;SDS011;3805;49.006;8.514;2023-06-14T16:38:39;4.57;;;4.10;;
7527;SDS011;3805;49.006;8.514;2023-06-14T16:41:29;5.07;;;4.57;;
7527;SDS011;3805;49.006;8.514;2023-06-14T16:44:18;4.83;;;4.40;;
7527;SDS011;3805;49.006;8.514;2023-06-14T16:47:07;5.57;;;4.50;;
7527;SDS011;3805;49.006;8.514;2023-06-14T16:49:57;5.47;;;5.07;;
7527;SDS011;3805;49.006;8.514;2023-06-14T16:52:45;4.30;;;3.97;;
7527;SDS011;3805;49.006;8.514;2023-06-14T16:55:34;7.70;;;4.40;;
7527;SDS011;3805;49.006;8.514;2023-06-14T16:58:24;5.03;;;4.07;;
7527;SDS011;3805;49.006;8.514;2023-06-14T17:01:13;9.00;;;6.00;;
7527;SDS011;3805;49.006;8.514;2023-06-14T17:04:02;4.80;;;4.40;;
7527;SDS011;3805;49.006;8.514;2023-06-14T17:06:50;5.97;;;5.57;;
7527;SDS011;3805;49.006;8.514;2023-06-14T17:09:39;6.53;;;4.37;;
7527;SDS011;3805;49.006;8.514;2023-06-14T17:12:27;5.30;;;4.80;;
7527;SDS011;3805;49.006;8.514;2023-06-14T17:15:17;4.37;;;4.07;;
7527;SDS011;3805;49.006;8.514;2023-06-14T17:18:06;5.70;;;5.30;;
7527;SDS011;3805;49.006;8.514;2023-06-14T17:20:55;4.27;;;3.97;;
7527;SDS011;3805;49.006;8.514;2023-06-14T17:23:43;5.37;;;4.70;;
7527;SDS011;3805;49.006;8.514;2023-06-14T17:26:32;4.70;;;4.40;;
7527;SDS011;3805;49.006;8.514;2023-06-14T17:29:21;4.83;;;4.43;;
7527;SDS011;3805;49.006;8.514;2023-06-14T17:32:12;5.00;;;4.70;;
7527;SDS011;3805;49.006;8.514;2023-06-14T17:35:01;7.40;;;4.90;;